Time;durP1;ratioP1;P1;durP2;ratioP2;P2;SDS_P1;SDS_P2;PMS_P1;PMS_P2;Temp;Humidity;BMP_temperature;BMP_pressure;BME280_temperature;BME280_humidity;BME280_pressure;Samples;Min_cycle;Max_cycle;Signal;HPM_P1;HPM_P2
2023/04/13 00:04:57;;;;;;;0.47;0.32;;;;;;;;;;10040947;29;20049;-81
2023/04/13 00:10:02;;;;;;;0.82;0.40;;;;;;;;;;10044924;29;20056;-82
2023/04/13 00:15:06;;;;;;;0.40;0.30;;;;;;;;;;10028759;29;20052;-82
2023/04/13 00:20:12;;;;;;;0.40;0.40;;;;;;;;;;10042098;29;20029;-82
2023/04/13 00:25:17;;;;;;;1.47;0.50;;;;;;;;;;10027675;29;20144;-82
2023/04/13 00:30:21;;;;;;;1.98;0.50;;;;;;;;;;10028190;29;20060;-82
2023/04/13 00:35:25;;;;;;;1.45;0.60;;;;;;;;;;10026897;29;20057;-82
2023/04/13 00:40:30;;;;;;;0.95;0.50;;;;;;;;;;10027230;29;20728;-82
2023/04/13 00:45:37;;;;;;;1.25;0.47;;;;;;;;;;10031086;29;20049;-82
2023/04/13 00:50:42;;;;;;;0.98;0.50;;;;;;;;;;10026157;29;20052;-82
2023/04/13 00:55:47;;;;;;;0.52;0.45;;;;;;;;;;10029925;29;20049;-83
2023/04/13 01:00:50;;;;;;;0.50;0.30;;;;;;;;;;10041282;29;20596;-82
2023/04/13 01:06:04;;;;;;;0.73;0.30;;;;;;;;;;10032501;29;20060;-84
2023/04/13 01:11:18;;;;;;;0.38;0.38;;;;;;;;;;10031846;29;20045;-83
2023/04/13 01:16:23;;;;;;;0.30;0.30;;;;;;;;;;10036526;29;20052;-82
2023/04/13 01:21:29;;;;;;;0.22;0.22;;;;;;;;;;10042902;29;20494;-82
2023/04/13 01:26:52;;;;;;;2.03;0.50;;;;;;;;;;10027552;29;20129;-82
2023/04/13 01:31:57;;;;;;;2.03;0.50;;;;;;;;;;10039667;29;20041;-82
2023/04/13 01:37:03;;;;;;;1.17;0.52;;;;;;;;;;10020537;29;20574;-82
2023/04/13 01:42:07;;;;;;;1.95;0.73;;;;;;;;;;10021082;29;20046;-82
2023/04/13 01:47:17;;;;;;;1.15;0.38;;;;;;;;;;10021762;29;20106;-82
2023/04/13 01:52:27;;;;;;;1.73;0.43;;;;;;;;;;10019924;29;20097;-82
2023/04/13 01:57:31;;;;;;;0.75;0.47;;;;;;;;;;10019231;29;20899;-82
2023/04/13 02:02:40;;;;;;;1.63;0.50;;;;;;;;;;10020664;29;20137;-83
2023/04/13 02:07:45;;;;;;;0.50;0.50;;;;;;;;;;10037925;29;20094;-82
2023/04/13 02:12:49;;;;;;;2.97;0.70;;;;;;;;;;10024877;29;20923;-83
2023/04/13 02:17:54;;;;;;;2.50;0.50;;;;;;;;;;10025646;29;20538;-82
2023/04/13 02:22:58;;;;;;;2.35;0.80;;;;;;;;;;10021182;29;20052;-82
2023/04/13 02:28:01;;;;;;;1.52;0.50;;;;;;;;;;10027784;29;20053;-82
2023/04/13 02:33:08;;;;;;;1.52;0.63;;;;;;;;;;10028331;29;20145;-81
2023/04/13 02:38:11;;;;;;;1.77;0.75;;;;;;;;;;10022633;29;20065;-82
2023/04/13 02:43:19;;;;;;;3.17;0.93;;;;;;;;;;10024508;29;20057;-82
2023/04/13 02:48:25;;;;;;;1.60;0.82;;;;;;;;;;10024586;29;20052;-82
2023/04/13 02:53:30;;;;;;;5.43;1.42;;;;;;;;;;10021237;29;20053;-83
2023/04/13 02:58:40;;;;;;;3.88;1.58;;;;;;;;;;10025734;29;20045;-82
2023/04/13 03:03:51;;;;;;;1.67;0.60;;;;;;;;;;10035956;29;20268;-82
2023/04/13 03:08:58;;;;;;;2.97;0.82;;;;;;;;;;10052371;29;20144;-82
2023/04/13 03:14:02;;;;;;;7.65;0.90;;;;;;;;;;10071635;29;20038;-82
2023/04/13 03:19:09;;;;;;;2.15;0.85;;;;;;;;;;10057947;29;20113;-83
2023/04/13 03:24:14;;;;;;;3.28;1.20;;;;;;;;;;10063303;29;20205;-82
2023/04/13 03:29:19;;;;;;;3.15;0.80;;;;;;;;;;10026556;29;20136;-82
2023/04/13 03:34:24;;;;;;;2.83;1.27;;;;;;;;;;10029669;29;20070;-82
2023/04/13 03:39:28;;;;;;;1.75;0.68;;;;;;;;;;10035003;29;20073;-82
2023/04/13 03:44:33;;;;;;;1.52;0.73;;;;;;;;;;10029934;29;20050;-82
2023/04/13 03:49:40;;;;;;;2.70;1.00;;;;;;;;;;10031540;29;20662;-83
2023/04/13 03:54:44;;;;;;;0.87;0.67;;;;;;;;;;10028452;29;20073;-83
2023/04/13 03:59:48;;;;;;;2.13;0.70;;;;;;;;;;10025552;29;20050;-82
2023/04/13 04:05:02;;;;;;;4.88;1.20;;;;;;;;;;10031766;29;20053;-82
2023/04/13 04:10:07;;;;;;;2.72;0.70;;;;;;;;;;10028628;29;20049;-82
2023/04/13 04:15:11;;;;;;;0.85;0.50;;;;;;;;;;10031113;29;20156;-82
2023/04/13 04:20:18;;;;;;;2.35;1.13;;;;;;;;;;10034401;29;20046;-82
2023/04/13 04:25:22;;;;;;;1.52;0.88;;;;;;;;;;10033180;29;20041;-82
2023/04/13 04:30:28;;;;;;;2.28;1.05;;;;;;;;;;10030157;29;20544;-80
2023/04/13 04:35:33;;;;;;;1.50;0.82;;;;;;;;;;10041765;29;20071;-81
2023/04/13 04:40:43;;;;;;;3.53;0.90;;;;;;;;;;10043882;29;20046;-80
2023/04/13 04:45:50;;;;;;;2.35;0.68;;;;;;;;;;10044787;29;20046;-81
2023/04/13 04:50:56;;;;;;;2.47;0.98;;;;;;;;;;10030339;29;20125;-82
2023/04/13 04:56:04;;;;;;;2.45;0.60;;;;;;;;;;10022861;29;20362;-81
2023/04/13 05:01:28;;;;;;;2.58;0.90;;;;;;;;;;10045012;29;20049;-82
2023/04/13 05:06:43;;;;;;;3.15;0.65;;;;;;;;;;10048196;29;20053;-82
2023/04/13 05:11:50;;;;;;;1.70;0.80;;;;;;;;;;10035823;29;20412;-85
2023/04/13 05:16:55;;;;;;;2.85;0.70;;;;;;;;;;10033817;29;20054;-84
2023/04/13 05:22:15;;;;;;;5.00;1.10;;;;;;;;;;10025843;29;20062;-86
2023/04/13 05:27:25;;;;;;;4.35;1.00;;;;;;;;;;10022710;29;20140;-85
2023/04/13 05:32:32;;;;;;;4.70;1.58;;;;;;;;;;10032245;29;20804;-85
2023/04/13 05:37:39;;;;;;;3.30;1.00;;;;;;;;;;10027959;29;20053;-85
2023/04/13 05:42:47;;;;;;;2.97;1.35;;;;;;;;;;10031257;29;20041;-86
2023/04/13 05:47:57;;;;;;;4.85;1.40;;;;;;;;;;10027672;29;20049;-86
2023/04/13 05:53:04;;;;;;;1.98;0.77;;;;;;;;;;10029415;29;20133;-86
2023/04/13 05:58:17;;;;;;;3.75;1.13;;;;;;;;;;10043575;29;20057;-85
2023/04/13 06:03:22;;;;;;;3.42;0.75;;;;;;;;;;10028592;29;20045;-81
2023/04/13 06:08:31;;;;;;;3.05;1.20;;;;;;;;;;10052164;29;20538;-83
2023/04/13 06:13:35;;;;;;;3.40;0.93;;;;;;;;;;10065780;29;20049;-82
2023/04/13 06:18:38;;;;;;;2.20;1.05;;;;;;;;;;10059434;29;20049;-82
2023/04/13 06:23:43;;;;;;;6.60;1.25;;;;;;;;;;10042827;29;20489;-84
2023/04/13 06:28:54;;;;;;;2.88;0.60;;;;;;;;;;10045998;29;20183;-82
2023/04/13 06:33:59;;;;;;;3.10;1.23;;;;;;;;;;10045556;29;20049;-83
2023/04/13 06:39:08;;;;;;;2.85;1.00;;;;;;;;;;10055177;29;20476;-82
2023/04/13 06:44:12;;;;;;;2.40;0.70;;;;;;;;;;10059756;29;20714;-83
2023/04/13 06:49:32;;;;;;;1.52;0.73;;;;;;;;;;10059836;29;20137;-82
2023/04/13 06:54:38;;;;;;;1.45;0.77;;;;;;;;;;10048714;29;20050;-82
2023/04/13 06:59:54;;;;;;;1.75;0.65;;;;;;;;;;10041280;29;20879;-82
2023/04/13 07:04:58;;;;;;;2.90;0.73;;;;;;;;;;10036506;29;20120;-83
2023/04/13 07:10:08;;;;;;;1.60;0.70;;;;;;;;;;10021892;29;20049;-82
2023/04/13 07:15:12;;;;;;;1.55;0.60;;;;;;;;;;10034776;29;20339;-82
2023/04/13 07:20:16;;;;;;;2.20;0.75;;;;;;;;;;10032362;29;20038;-81
2023/04/13 07:25:23;;;;;;;2.70;0.63;;;;;;;;;;10035416;29;20070;-82
2023/04/13 07:30:27;;;;;;;1.73;0.70;;;;;;;;;;10028728;29;20041;-82
2023/04/13 07:35:31;;;;;;;2.60;0.70;;;;;;;;;;10037385;29;20105;-82
2023/04/13 07:40:37;;;;;;;2.00;0.90;;;;;;;;;;10031093;29;20045;-82
2023/04/13 07:45:44;;;;;;;4.28;0.52;;;;;;;;;;10036294;29;20045;-82
2023/04/13 07:50:48;;;;;;;2.78;0.63;;;;;;;;;;10031498;29;20132;-82
2023/04/13 07:55:57;;;;;;;1.80;0.80;;;;;;;;;;10045370;29;20795;-82
2023/04/13 08:01:02;;;;;;;0.95;0.60;;;;;;;;;;10049971;29;20045;-81
2023/04/13 08:06:07;;;;;;;1.75;0.90;;;;;;;;;;10036610;29;20056;-82
2023/04/13 08:11:12;;;;;;;2.45;0.93;;;;;;;;;;10066062;29;20496;-83
2023/04/13 08:16:17;;;;;;;2.47;1.00;;;;;;;;;;10033950;29;20080;-82
2023/04/13 08:21:20;;;;;;;1.38;0.80;;;;;;;;;;10040762;29;20066;-81
2023/04/13 08:26:26;;;;;;;1.52;0.80;;;;;;;;;;10039496;29;20050;-82
2023/04/13 08:31:34;;;;;;;3.78;0.93;;;;;;;;;;10063649;29;20033;-82
2023/04/13 08:36:40;;;;;;;0.88;0.63;;;;;;;;;;10061439;29;20057;-82
2023/04/13 08:41:48;;;;;;;1.60;0.60;;;;;;;;;;10049523;29;20042;-82
2023/04/13 08:46:54;;;;;;;2.85;0.70;;;;;;;;;;10078481;23;20506;-87
2023/04/13 08:52:07;;;;;;;1.83;0.55;;;;;;;;;;10064764;29;20045;-88
2023/04/13 08:57:13;;;;;;;1.45;0.70;;;;;;;;;;10067931;29;20052;-89
2023/04/13 09:02:22;;;;;;;1.90;0.93;;;;;;;;;;10074868;29;20052;-89
2023/04/13 09:07:33;;;;;;;3.00;1.00;;;;;;;;;;10068519;29;20048;-90
2023/04/13 09:12:42;;;;;;;2.45;0.75;;;;;;;;;;10069894;29;20041;-87
2023/04/13 09:17:47;;;;;;;3.38;1.08;;;;;;;;;;10058790;29;20044;-87
2023/04/13 09:22:52;;;;;;;2.05;0.75;;;;;;;;;;10062174;29;20037;-86
2023/04/13 09:27:57;;;;;;;3.17;1.23;;;;;;;;;;10055159;29;20093;-87
2023/04/13 09:33:04;;;;;;;3.07;1.10;;;;;;;;;;10060620;29;20131;-86
2023/04/13 09:38:10;;;;;;;2.17;0.75;;;;;;;;;;10054878;29;20061;-86
2023/04/13 09:43:15;;;;;;;1.90;0.60;;;;;;;;;;10076973;29;20459;-86
2023/04/13 09:48:20;;;;;;;3.23;1.03;;;;;;;;;;10051257;29;20045;-86
2023/04/13 09:53:23;;;;;;;3.20;1.25;;;;;;;;;;10059284;29;20097;-86
2023/04/13 09:58:30;;;;;;;2.63;0.82;;;;;;;;;;10057543;29;20408;-85
2023/04/13 10:03:35;;;;;;;3.05;0.90;;;;;;;;;;10076056;29;20037;-86
2023/04/13 10:08:39;;;;;;;2.25;0.80;;;;;;;;;;10070644;29;20606;-85
2023/04/13 10:13:49;;;;;;;4.35;1.35;;;;;;;;;;10065925;29;20045;-85
2023/04/13 10:18:59;;;;;;;3.25;1.27;;;;;;;;;;10079483;29;20036;-85
2023/04/13 10:24:04;;;;;;;3.72;1.40;;;;;;;;;;10083146;29;20104;-86
2023/04/13 10:29:15;;;;;;;1.80;0.82;;;;;;;;;;10080480;29;20057;-86
2023/04/13 10:34:26;;;;;;;1.97;0.80;;;;;;;;;;10065002;29;20053;-85
2023/04/13 10:39:31;;;;;;;1.40;0.80;;;;;;;;;;10066670;29;20044;-84
2023/04/13 10:44:43;;;;;;;4.50;1.10;;;;;;;;;;10081521;29;20069;-85
2023/04/13 10:49:49;;;;;;;2.92;0.98;;;;;;;;;;10061613;29;20733;-85
2023/04/13 10:54:53;;;;;;;2.47;0.80;;;;;;;;;;10065879;29;20462;-85
2023/04/13 10:59:58;;;;;;;1.25;0.50;;;;;;;;;;10059538;29;20048;-85
2023/04/13 11:05:02;;;;;;;1.27;0.45;;;;;;;;;;10067256;29;20045;-86
2023/04/13 11:10:07;;;;;;;1.95;0.80;;;;;;;;;;10076151;29;20300;-86
2023/04/13 11:15:19;;;;;;;1.60;0.82;;;;;;;;;;10087620;29;20047;-85
2023/04/13 11:20:32;;;;;;;3.08;0.88;;;;;;;;;;10062951;29;20554;-86
2023/04/13 11:25:36;;;;;;;2.20;0.50;;;;;;;;;;10078484;29;20053;-88
2023/04/13 11:30:41;;;;;;;1.17;0.30;;;;;;;;;;10082463;29;20080;-87
2023/04/13 11:35:46;;;;;;;0.63;0.40;;;;;;;;;;10097771;29;20151;-88
2023/04/13 11:40:52;;;;;;;0.75;0.50;;;;;;;;;;10078693;29;20076;-88
2023/04/13 11:46:02;;;;;;;0.57;0.40;;;;;;;;;;10086935;29;20059;-87
2023/04/13 11:51:07;;;;;;;0.85;0.20;;;;;;;;;;10086232;29;20139;-90
2023/04/13 11:56:11;;;;;;;0.82;0.20;;;;;;;;;;10077529;29;20617;-88
2023/04/13 12:01:17;;;;;;;0.30;0.30;;;;;;;;;;10103031;29;20048;-93
2023/04/13 12:06:26;;;;;;;0.80;0.35;;;;;;;;;;10075532;29;20053;-88
2023/04/13 12:11:37;;;;;;;3.03;0.93;;;;;;;;;;10086585;29;20048;-88
2023/04/13 12:16:49;;;;;;;1.17;0.60;;;;;;;;;;10088626;29;20233;-88
2023/04/13 12:21:56;;;;;;;0.95;0.55;;;;;;;;;;10068425;29;20136;-89
2023/04/13 12:27:03;;;;;;;2.78;0.50;;;;;;;;;;10077051;29;20536;-90
2023/04/13 12:32:15;;;;;;;2.53;0.50;;;;;;;;;;10071393;29;20041;-89
2023/04/13 12:37:19;;;;;;;1.60;0.70;;;;;;;;;;10064307;29;20415;-91
2023/04/13 12:42:22;;;;;;;0.88;0.40;;;;;;;;;;10087666;29;20069;-89
2023/04/13 12:47:27;;;;;;;0.95;0.60;;;;;;;;;;10087721;29;20048;-89
2023/04/13 12:52:31;;;;;;;2.30;0.80;;;;;;;;;;10080525;29;20049;-88
2023/04/13 12:57:35;;;;;;;2.63;0.68;;;;;;;;;;10087937;29;20059;-91
2023/04/13 13:02:41;;;;;;;1.63;0.68;;;;;;;;;;10085745;29;20241;-88
2023/04/13 13:07:45;;;;;;;4.47;1.08;;;;;;;;;;10061878;29;20071;-88
2023/04/13 13:12:48;;;;;;;2.33;0.80;;;;;;;;;;10070391;29;20530;-88
2023/04/13 13:17:53;;;;;;;1.02;0.80;;;;;;;;;;10060914;29;20057;-87
2023/04/13 13:22:56;;;;;;;2.22;0.88;;;;;;;;;;10072285;29;20041;-89
2023/04/13 13:28:01;;;;;;;2.88;0.70;;;;;;;;;;10068442;29;20063;-90
2023/04/13 13:33:09;;;;;;;4.95;0.77;;;;;;;;;;10064192;29;20045;-88
2023/04/13 13:38:12;;;;;;;1.83;0.77;;;;;;;;;;10073183;29;20049;-88
2023/04/13 13:43:20;;;;;;;2.28;1.15;;;;;;;;;;10093146;29;20064;-88
2023/04/13 13:48:25;;;;;;;1.80;1.13;;;;;;;;;;10078321;29;20049;-93
2023/04/13 13:53:48;;;;;;;2.33;0.77;;;;;;;;;;10082561;29;20409;-91
2023/04/13 13:58:52;;;;;;;1.95;0.70;;;;;;;;;;10065548;29;20052;-89
2023/04/13 14:03:57;;;;;;;1.77;0.70;;;;;;;;;;10066367;29;20132;-89
2023/04/13 14:09:01;;;;;;;2.33;0.73;;;;;;;;;;10088519;29;20519;-89
2023/04/13 14:14:05;;;;;;;2.03;0.70;;;;;;;;;;10075391;29;20049;-88
2023/04/13 14:19:16;;;;;;;2.30;0.85;;;;;;;;;;10064791;29;20647;-88
2023/04/13 14:24:20;;;;;;;4.43;0.90;;;;;;;;;;10069133;29;20101;-89
2023/04/13 14:29:23;;;;;;;2.38;0.70;;;;;;;;;;10082094;29;20140;-88
2023/04/13 14:34:28;;;;;;;1.00;0.70;;;;;;;;;;10077549;29;20045;-89
2023/04/13 14:39:32;;;;;;;1.33;0.57;;;;;;;;;;10077674;29;20105;-88
2023/04/13 14:44:36;;;;;;;1.65;0.80;;;;;;;;;;10104624;23;20150;-82
2023/04/13 14:49:41;;;;;;;2.97;0.60;;;;;;;;;;10122381;29;20132;-83
2023/04/13 14:54:45;;;;;;;2.22;0.80;;;;;;;;;;10074276;29;20053;-84
2023/04/13 14:59:51;;;;;;;3.65;0.85;;;;;;;;;;10073142;29;20055;-82
2023/04/13 15:04:57;;;;;;;2.97;1.00;;;;;;;;;;10088996;29;20120;-83
2023/04/13 15:10:03;;;;;;;3.47;1.00;;;;;;;;;;10092407;29;20045;-84
2023/04/13 15:15:13;;;;;;;2.95;0.85;;;;;;;;;;10094883;29;20502;-83
2023/04/13 15:20:18;;;;;;;2.53;0.90;;;;;;;;;;10064567;29;21105;-82
2023/04/13 15:25:22;;;;;;;2.08;0.60;;;;;;;;;;10083242;29;20057;-84
2023/04/13 15:30:27;;;;;;;3.28;0.80;;;;;;;;;;10093301;29;20135;-84
2023/04/13 15:35:34;;;;;;;3.25;0.90;;;;;;;;;;10081565;29;20041;-83
2023/04/13 15:40:38;;;;;;;3.08;1.10;;;;;;;;;;10096082;29;20117;-83
2023/04/13 15:45:41;;;;;;;1.85;0.80;;;;;;;;;;10092905;29;20052;-83
2023/04/13 15:50:46;;;;;;;1.75;0.70;;;;;;;;;;10090709;29;20049;-83
2023/04/13 15:55:50;;;;;;;2.33;0.70;;;;;;;;;;10096028;29;20056;-83
2023/04/13 16:01:02;;;;;;;3.17;0.90;;;;;;;;;;10090168;29;20051;-83
2023/04/13 16:06:07;;;;;;;2.38;1.10;;;;;;;;;;10074738;29;20455;-84
2023/04/13 16:11:10;;;;;;;2.47;0.67;;;;;;;;;;10072850;29;20142;-84
2023/04/13 16:16:14;;;;;;;1.40;0.80;;;;;;;;;;10089810;29;20134;-84
2023/04/13 16:21:19;;;;;;;4.22;1.17;;;;;;;;;;10083863;29;20421;-82
2023/04/13 16:26:22;;;;;;;2.33;0.90;;;;;;;;;;10079000;29;20144;-83
2023/04/13 16:31:26;;;;;;;1.98;1.00;;;;;;;;;;10082613;29;20041;-84
2023/04/13 16:36:31;;;;;;;2.92;0.88;;;;;;;;;;10088827;29;20120;-84
2023/04/13 16:41:34;;;;;;;2.50;1.20;;;;;;;;;;10088055;29;20145;-84
2023/04/13 16:46:38;;;;;;;4.05;0.80;;;;;;;;;;10071546;29;20041;-84
2023/04/13 16:51:42;;;;;;;1.77;0.75;;;;;;;;;;10070859;29;20055;-84
2023/04/13 16:56:46;;;;;;;1.45;0.60;;;;;;;;;;10087534;29;20320;-83
2023/04/13 17:01:50;;;;;;;3.13;0.98;;;;;;;;;;10087885;29;20077;-84
2023/04/13 17:07:00;;;;;;;1.95;0.80;;;;;;;;;;10073138;29;20054;-84
2023/04/13 17:12:04;;;;;;;6.63;1.30;;;;;;;;;;10070562;29;20045;-84
2023/04/13 17:17:07;;;;;;;1.95;0.80;;;;;;;;;;10070648;29;20049;-83
2023/04/13 17:22:12;;;;;;;3.95;0.77;;;;;;;;;;10069970;29;20067;-84
2023/04/13 17:27:16;;;;;;;3.42;0.98;;;;;;;;;;10087259;29;20049;-84
2023/04/13 17:32:20;;;;;;;3.60;0.90;;;;;;;;;;10081665;29;20059;-84
2023/04/13 17:37:25;;;;;;;7.63;1.33;;;;;;;;;;10083536;29;20045;-83
2023/04/13 17:42:28;;;;;;;3.42;1.08;;;;;;;;;;10100911;29;20044;-83
2023/04/13 17:47:31;;;;;;;2.40;1.20;;;;;;;;;;10099074;29;20045;-83
2023/04/13 17:52:36;;;;;;;2.28;1.10;;;;;;;;;;10070224;29;20161;-83
2023/04/13 17:57:40;;;;;;;2.85;0.88;;;;;;;;;;10092694;29;20068;-83
2023/04/13 18:02:43;;;;;;;1.77;0.60;;;;;;;;;;10098877;29;20045;-83
2023/04/13 18:07:48;;;;;;;2.08;1.13;;;;;;;;;;10095448;29;20321;-83
2023/04/13 18:12:51;;;;;;;4.70;2.38;;;;;;;;;;10086292;29;20045;-84
2023/04/13 18:17:55;;;;;;;3.58;1.70;;;;;;;;;;10075351;29;20049;-83
2023/04/13 18:23:00;;;;;;;5.20;2.38;;;;;;;;;;10064450;29;20144;-85
2023/04/13 18:28:03;;;;;;;3.92;2.10;;;;;;;;;;10068608;29;20084;-84
2023/04/13 18:33:07;;;;;;;3.70;1.30;;;;;;;;;;10073691;29;20053;-84
2023/04/13 18:38:12;;;;;;;5.38;1.25;;;;;;;;;;10077259;29;20055;-84
2023/04/13 18:43:15;;;;;;;2.38;1.20;;;;;;;;;;10093787;29;20125;-84
2023/04/13 18:48:18;;;;;;;4.70;1.10;;;;;;;;;;10071564;29;20394;-83
2023/04/13 18:53:23;;;;;;;2.03;1.20;;;;;;;;;;10076569;29;20045;-84
2023/04/13 18:58:27;;;;;;;3.75;1.52;;;;;;;;;;10075865;29;20080;-83
2023/04/13 19:03:30;;;;;;;5.35;1.90;;;;;;;;;;10076023;29;20059;-83
2023/04/13 19:08:35;;;;;;;2.95;1.60;;;;;;;;;;10089519;29;20049;-84
2023/04/13 19:13:38;;;;;;;1.92;1.08;;;;;;;;;;10092158;29;20048;-84
2023/04/13 19:18:41;;;;;;;2.38;1.10;;;;;;;;;;10076071;29;20136;-84
2023/04/13 19:23:46;;;;;;;3.55;1.50;;;;;;;;;;10075623;29;20437;-84
2023/04/13 19:28:54;;;;;;;3.28;1.10;;;;;;;;;;10075805;29;20048;-83
2023/04/13 19:33:57;;;;;;;2.17;1.10;;;;;;;;;;10090908;29;20052;-83
2023/04/13 19:39:04;;;;;;;3.63;1.50;;;;;;;;;;10076048;29;20083;-83
2023/04/13 19:44:08;;;;;;;;;;;;;;;;;;10074388;29;20076;-83
2023/04/13 19:49:11;;;;;;;2.42;1.15;;;;;;;;;;10090372;29;20330;-83
2023/04/13 19:54:16;;;;;;;2.33;1.20;;;;;;;;;;10090294;29;20059;-84
2023/04/13 19:59:19;;;;;;;2.45;1.27;;;;;;;;;;10069260;29;20083;-84
2023/04/13 20:04:23;;;;;;;4.05;1.48;;;;;;;;;;10072513;29;20084;-83
2023/04/13 20:09:28;;;;;;;2.55;1.48;;;;;;;;;;10096104;29;20045;-83
2023/04/13 20:14:32;;;;;;;2.40;1.33;;;;;;;;;;10090592;29;20534;-84
2023/04/13 20:19:35;;;;;;;2.95;1.80;;;;;;;;;;10106267;29;20521;-84
2023/04/13 20:24:40;;;;;;;2.40;1.60;;;;;;;;;;10104123;29;20108;-84
2023/04/13 20:29:43;;;;;;;2.67;1.50;;;;;;;;;;10084142;29;20051;-83
2023/04/13 20:34:47;;;;;;;2.45;1.42;;;;;;;;;;10069767;29;20049;-83
2023/04/13 20:39:52;;;;;;;3.05;1.73;;;;;;;;;;10083607;29;20403;-83
2023/04/13 20:44:57;;;;;;;3.25;1.40;;;;;;;;;;10109389;23;20204;-86
2023/04/13 20:50:00;;;;;;;3.75;1.80;;;;;;;;;;10016461;29;20141;-86
2023/04/13 20:55:07;;;;;;;3.30;1.67;;;;;;;;;;10022104;29;20113;-86
2023/04/13 21:00:12;;;;;;;3.53;1.95;;;;;;;;;;10008337;29;20052;-86
2023/04/13 21:05:20;;;;;;;3.67;1.70;;;;;;;;;;10007330;29;20527;-86
2023/04/13 21:10:25;;;;;;;3.40;1.73;;;;;;;;;;10020125;29;20057;-86
2023/04/13 21:15:29;;;;;;;2.95;1.48;;;;;;;;;;10005156;29;20137;-87
2023/04/13 21:20:32;;;;;;;3.20;1.48;;;;;;;;;;10009133;29;20046;-87
2023/04/13 21:25:38;;;;;;;4.07;1.90;;;;;;;;;;10024564;29;20065;-86
2023/04/13 21:30:42;;;;;;;;;;;;;;;;;;10033429;29;20131;-86
2023/04/13 21:35:45;;;;;;;4.85;1.42;;;;;;;;;;10017089;29;19924;-86
2023/04/13 21:40:51;;;;;;;2.28;1.10;;;;;;;;;;10026309;29;20140;-86
2023/04/13 21:45:54;;;;;;;3.63;1.17;;;;;;;;;;10012462;29;20117;-86
2023/04/13 21:50:58;;;;;;;1.95;1.23;;;;;;;;;;10018696;29;20834;-86
2023/04/13 21:56:04;;;;;;;4.50;1.63;;;;;;;;;;10019040;29;20046;-88
2023/04/13 22:01:08;;;;;;;8.30;3.40;;;;;;;;;;10006580;29;20122;-88
2023/04/13 22:06:12;;;;;;;7.25;3.20;;;;;;;;;;10025732;29;20050;-88
2023/04/13 22:11:17;;;;;;;7.63;3.00;;;;;;;;;;10040436;29;20057;-88
2023/04/13 22:16:20;;;;;;;5.82;2.78;;;;;;;;;;10057105;29;20056;-90
2023/04/13 22:21:25;;;;;;;5.13;2.50;;;;;;;;;;10039938;29;20054;-88
2023/04/13 22:26:30;;;;;;;5.85;2.38;;;;;;;;;;10036929;29;20049;-88
2023/04/13 22:31:34;;;;;;;2.88;1.67;;;;;;;;;;10024364;29;20053;-89
2023/04/13 22:36:37;;;;;;;3.67;1.70;;;;;;;;;;10028682;29;20069;-88
2023/04/13 22:41:42;;;;;;;3.30;1.80;;;;;;;;;;10050981;29;20064;-87
2023/04/13 22:46:46;;;;;;;3.60;1.63;;;;;;;;;;10031758;29;20080;-86
2023/04/13 22:51:49;;;;;;;3.55;1.92;;;;;;;;;;10015438;29;20045;-86
2023/04/13 22:56:54;;;;;;;5.28;2.55;;;;;;;;;;10040978;29;20037;-87
2023/04/13 23:01:59;;;;;;;4.30;2.20;;;;;;;;;;10038525;29;20110;-87
2023/04/13 23:07:03;;;;;;;4.95;2.15;;;;;;;;;;10030596;29;20077;-87
2023/04/13 23:12:08;;;;;;;2.95;1.73;;;;;;;;;;10046822;29;20049;-87
2023/04/13 23:17:12;;;;;;;4.53;1.60;;;;;;;;;;10023866;29;20053;-86
2023/04/13 23:22:15;;;;;;;4.82;2.22;;;;;;;;;;10037059;29;20148;-86
2023/04/13 23:27:20;;;;;;;2.78;1.40;;;;;;;;;;10016076;29;20042;-86
2023/04/13 23:32:24;;;;;;;2.72;1.23;;;;;;;;;;10033909;29;20060;-86
2023/04/13 23:37:27;;;;;;;1.10;1.00;;;;;;;;;;10041822;29;20515;-87
2023/04/13 23:42:32;;;;;;;2.05;1.15;;;;;;;;;;10045164;29;20053;-86
2023/04/13 23:47:36;;;;;;;2.50;1.38;;;;;;;;;;10035186;29;20630;-87
2023/04/13 23:52:40;;;;;;;2.47;1.20;;;;;;;;;;10022267;29;20080;-87
2023/04/13 23:57:45;;;;;;;2.38;1.33;;;;;;;;;;10033359;29;20137;-87
